createdAt,value
2023-04-17T00:00:36.239Z,9.50
2023-04-17T00:01:17.830Z,9.46
2023-04-17T00:02:00.526Z,9.42
2023-04-17T00:02:42.309Z,9.42
2023-04-17T00:03:24.028Z,9.40
2023-04-17T00:04:10.674Z,9.40
2023-04-17T00:04:54.181Z,9.28
2023-04-17T00:05:35.851Z,9.40
2023-04-17T00:06:18.986Z,9.40
2023-04-17T00:07:03.415Z,9.37
2023-04-17T00:07:46.489Z,9.41
2023-04-17T00:08:28.136Z,9.41
2023-04-17T00:09:10.930Z,9.41
2023-04-17T00:09:52.676Z,9.42
2023-04-17T00:10:34.234Z,9.05
2023-04-17T00:11:17.993Z,9.30
2023-04-17T00:12:00.992Z,8.97
2023-04-17T00:12:42.639Z,9.38
2023-04-17T00:13:24.266Z,9.35
2023-04-17T00:14:06.208Z,9.30
2023-04-17T00:14:48.185Z,9.26
2023-04-17T00:15:29.811Z,9.31
2023-04-17T00:16:13.641Z,9.20
2023-04-17T00:16:55.476Z,9.32
2023-04-17T00:17:37.403Z,9.31
2023-04-17T00:18:19.061Z,9.20
2023-04-17T00:19:00.789Z,9.29
2023-04-17T00:19:42.413Z,9.08
2023-04-17T00:20:23.979Z,9.28
2023-04-17T00:21:06.049Z,9.21
2023-04-17T00:21:47.788Z,9.17
2023-04-17T00:22:29.356Z,8.85
2023-04-17T00:23:11.055Z,9.22
2023-04-17T00:23:52.666Z,9.20
2023-04-17T00:24:34.298Z,9.20
2023-04-17T00:25:15.961Z,9.22
2023-04-17T00:25:57.695Z,9.15
2023-04-17T00:26:39.352Z,9.18
2023-04-17T00:27:21.018Z,9.16
2023-04-17T00:28:02.605Z,8.94
2023-04-17T00:28:44.191Z,9.08
2023-04-17T00:29:25.827Z,8.98
2023-04-17T00:30:08.143Z,8.93
2023-04-17T00:30:49.707Z,9.06
2023-04-17T00:31:31.393Z,9.04
2023-04-17T00:32:13.225Z,8.95
2023-04-17T00:32:54.971Z,8.84
2023-04-17T00:33:36.681Z,8.91
2023-04-17T00:34:18.625Z,8.87
2023-04-17T00:35:01.420Z,8.81
2023-04-17T00:35:43.043Z,8.77
2023-04-17T00:36:25.168Z,8.64
2023-04-17T00:37:07.524Z,8.62
2023-04-17T00:37:49.254Z,8.56
2023-04-17T00:38:30.924Z,8.64
2023-04-17T00:39:12.830Z,8.51
2023-04-17T00:39:54.760Z,8.34
2023-04-17T00:40:36.505Z,8.56
2023-04-17T00:41:19.338Z,8.57
2023-04-17T00:42:01.553Z,8.52
2023-04-17T00:42:45.194Z,8.57
2023-04-17T00:43:26.834Z,8.58
2023-04-17T00:44:08.695Z,8.57
2023-04-17T00:44:50.314Z,8.59
2023-04-17T00:45:32.442Z,8.47
2023-04-17T00:46:15.112Z,8.61
2023-04-17T00:46:57.005Z,8.60
2023-04-17T00:47:39.080Z,8.64
2023-04-17T00:48:23.977Z,8.57
2023-04-17T00:49:05.671Z,8.68
2023-04-17T00:49:47.330Z,8.75
2023-04-17T00:50:29.136Z,8.78
2023-04-17T00:51:11.229Z,8.80
2023-04-17T00:51:53.737Z,8.84
2023-04-17T00:52:35.838Z,8.84
2023-04-17T00:53:17.646Z,8.64
2023-04-17T00:54:00.326Z,8.83
2023-04-17T00:54:42.375Z,8.67
2023-04-17T00:55:24.226Z,8.77
2023-04-17T00:56:06.723Z,8.75
2023-04-17T00:56:49.758Z,8.84
2023-04-17T00:57:31.424Z,8.82
2023-04-17T00:58:13.627Z,8.87
2023-04-17T00:58:57.040Z,8.79
2023-04-17T00:59:39.205Z,8.87
2023-04-17T01:00:21.200Z,8.82
2023-04-17T01:01:04.410Z,8.87
2023-04-17T01:01:46.186Z,8.86
2023-04-17T01:02:28.325Z,8.86
2023-04-17T01:03:10.761Z,8.71
2023-04-17T01:03:53.650Z,8.78
2023-04-17T01:04:35.441Z,8.56
2023-04-17T01:05:17.589Z,8.79
2023-04-17T01:05:59.512Z,8.82
2023-04-17T01:06:41.901Z,8.79
2023-04-17T01:07:24.325Z,8.76
2023-04-17T01:08:05.967Z,8.74
2023-04-17T01:08:47.743Z,8.73
2023-04-17T01:09:29.355Z,8.69
2023-04-17T01:10:11.195Z,8.43
2023-04-17T01:10:52.782Z,8.69
2023-04-17T01:11:34.688Z,8.61
2023-04-17T01:12:19.924Z,8.71
2023-04-17T01:13:07.996Z,8.74
2023-04-17T01:13:51.644Z,8.70
2023-04-17T01:14:33.255Z,8.79
2023-04-17T01:15:15.392Z,8.80
2023-04-17T01:15:57.099Z,8.82
2023-04-17T01:16:40.263Z,8.83
2023-04-17T01:17:22.805Z,8.82
2023-04-17T01:18:06.475Z,8.83
2023-04-17T01:18:48.320Z,8.67
2023-04-17T01:19:30.777Z,8.91
2023-04-17T01:20:13.436Z,8.92
2023-04-17T01:20:55.070Z,8.92
2023-04-17T01:21:36.879Z,8.94
2023-04-17T01:22:22.357Z,8.94
2023-04-17T01:23:08.630Z,8.94
2023-04-17T01:23:54.571Z,8.94
2023-04-17T01:24:40.422Z,8.92
2023-04-17T01:25:22.419Z,8.64
2023-04-17T01:26:04.115Z,8.91
2023-04-17T01:26:45.991Z,8.91
2023-04-17T01:27:28.502Z,8.90
2023-04-17T01:28:10.316Z,8.86
2023-04-17T01:28:59.861Z,8.88
2023-04-17T01:29:43.247Z,8.89
2023-04-17T01:30:24.998Z,8.89
2023-04-17T01:31:16.319Z,8.74
2023-04-17T01:31:58.251Z,8.87
2023-04-17T01:32:40.089Z,8.76
2023-04-17T01:33:21.696Z,8.87
2023-04-17T01:34:03.335Z,8.85
2023-04-17T01:34:45.144Z,8.78
2023-04-17T01:35:26.770Z,8.73
2023-04-17T01:36:09.270Z,8.68
2023-04-17T01:36:51.172Z,8.58
2023-04-17T01:37:32.911Z,8.60
2023-04-17T01:38:14.478Z,8.63
2023-04-17T01:38:56.468Z,8.64
2023-04-17T01:39:38.522Z,8.43
2023-04-17T01:40:20.440Z,8.63
2023-04-17T01:41:09.519Z,8.53
2023-04-17T01:41:51.512Z,8.57
2023-04-17T01:42:34.301Z,8.45
2023-04-17T01:43:15.991Z,8.50
2023-04-17T01:43:57.614Z,8.50
2023-04-17T01:44:39.241Z,8.50
2023-04-17T01:45:21.403Z,8.50
2023-04-17T01:46:03.105Z,8.37
2023-04-17T01:46:44.801Z,8.40
2023-04-17T01:47:26.653Z,8.47
2023-04-17T01:48:08.293Z,8.44
2023-04-17T01:48:50.149Z,8.43
2023-04-17T01:49:31.996Z,8.42
2023-04-17T01:50:13.788Z,8.45
2023-04-17T01:50:55.702Z,8.24
2023-04-17T01:51:37.294Z,8.40
2023-04-17T01:52:18.891Z,8.40
2023-04-17T01:53:00.817Z,8.39
2023-04-17T01:53:42.663Z,8.16
2023-04-17T01:54:24.969Z,8.28
2023-04-17T01:55:07.167Z,8.29
2023-04-17T01:55:48.818Z,8.34
2023-04-17T01:56:30.848Z,8.31
2023-04-17T01:57:12.510Z,8.18
2023-04-17T01:57:55.328Z,7.75
2023-04-17T01:58:37.686Z,8.12
2023-04-17T01:59:19.352Z,8.13
2023-04-17T02:00:00.967Z,8.22
2023-04-17T02:00:45.633Z,8.21
2023-04-17T02:01:27.373Z,8.25
2023-04-17T02:02:09.211Z,8.16
2023-04-17T02:02:51.031Z,8.24
2023-04-17T02:03:32.916Z,8.23
2023-04-17T02:04:14.878Z,8.23
2023-04-17T02:04:56.606Z,7.72
2023-04-17T02:05:38.160Z,8.21
2023-04-17T02:06:20.307Z,8.21
2023-04-17T02:07:05.280Z,8.20
2023-04-17T02:07:50.296Z,8.20
2023-04-17T02:08:31.897Z,8.20
2023-04-17T02:09:13.800Z,8.19
2023-04-17T02:09:55.440Z,8.13
2023-04-17T02:10:37.010Z,8.16
2023-04-17T02:11:18.598Z,8.17
2023-04-17T02:12:00.277Z,8.15
2023-04-17T02:12:41.927Z,8.10
2023-04-17T02:13:23.609Z,8.07
2023-04-17T02:14:05.445Z,7.92
2023-04-17T02:14:47.047Z,7.91
2023-04-17T02:15:28.737Z,7.76
2023-04-17T02:16:12.433Z,7.83
2023-04-17T02:16:56.577Z,7.78
2023-04-17T02:17:38.285Z,7.81
2023-04-17T02:18:20.062Z,7.79
2023-04-17T02:19:01.713Z,7.71
2023-04-17T02:19:45.813Z,7.73
2023-04-17T02:20:27.430Z,7.74
2023-04-17T02:21:09.794Z,7.64
2023-04-17T02:21:51.418Z,7.66
2023-04-17T02:22:33.128Z,7.65
2023-04-17T02:23:14.853Z,7.61
2023-04-17T02:23:56.445Z,7.58
2023-04-17T02:24:38.064Z,7.49
2023-04-17T02:25:19.737Z,7.47
2023-04-17T02:26:03.436Z,7.45
2023-04-17T02:26:45.052Z,7.19
2023-04-17T02:27:27.559Z,7.35
2023-04-17T02:28:09.134Z,7.34
2023-04-17T02:28:50.723Z,7.47
2023-04-17T02:29:32.400Z,7.49
2023-04-17T02:30:14.104Z,7.48
2023-04-17T02:30:55.812Z,7.38
2023-04-17T02:31:39.264Z,7.46
2023-04-17T02:32:20.975Z,7.43
2023-04-17T02:33:02.739Z,7.36
2023-04-17T02:33:45.866Z,7.42
2023-04-17T02:34:27.648Z,7.00
2023-04-17T02:35:10.353Z,7.48
2023-04-17T02:35:52.262Z,7.48
2023-04-17T02:36:39.042Z,7.49
2023-04-17T02:37:21.031Z,7.51
2023-04-17T02:38:02.939Z,7.52
2023-04-17T02:38:44.630Z,7.53
2023-04-17T02:39:28.148Z,7.52
2023-04-17T02:40:14.362Z,7.16
2023-04-17T02:40:57.063Z,7.53
2023-04-17T02:41:38.768Z,7.60
2023-04-17T02:42:20.983Z,7.61
2023-04-17T02:43:02.713Z,7.56
2023-04-17T02:43:45.153Z,7.59
2023-04-17T02:44:26.796Z,7.69
2023-04-17T02:45:10.976Z,7.71
2023-04-17T02:45:52.676Z,7.64
2023-04-17T02:46:34.541Z,7.70
2023-04-17T02:47:16.399Z,7.76
2023-04-17T02:47:58.184Z,7.75
2023-04-17T02:48:39.960Z,7.72
2023-04-17T02:49:21.767Z,7.61
2023-04-17T02:50:05.519Z,7.54
2023-04-17T02:50:52.712Z,7.70
2023-04-17T02:51:35.392Z,7.71
2023-04-17T02:52:18.505Z,7.71
2023-04-17T02:53:00.320Z,7.76
2023-04-17T02:53:44.860Z,7.39
2023-04-17T02:54:26.424Z,7.76
2023-04-17T02:55:09.603Z,7.60
2023-04-17T02:55:52.376Z,7.78
2023-04-17T02:56:38.010Z,7.77
2023-04-17T02:57:19.677Z,7.77
2023-04-17T02:58:01.861Z,7.79
2023-04-17T02:58:46.225Z,7.50
2023-04-17T02:59:30.244Z,7.81
2023-04-17T03:00:15.277Z,7.82
2023-04-17T03:01:02.464Z,7.80
2023-04-17T03:01:46.383Z,7.82
2023-04-17T03:02:30.583Z,7.80
2023-04-17T03:03:12.530Z,7.78
2023-04-17T03:03:54.286Z,7.78
2023-04-17T03:04:38.713Z,7.78
2023-04-17T03:05:23.132Z,7.75
2023-04-17T03:06:06.873Z,7.75
2023-04-17T03:06:48.509Z,7.74
2023-04-17T03:07:30.181Z,7.75
2023-04-17T03:08:11.799Z,7.75
2023-04-17T03:08:59.425Z,7.67
2023-04-17T03:09:42.678Z,7.73
2023-04-17T03:10:24.427Z,7.49
2023-04-17T03:11:06.603Z,7.72
2023-04-17T03:11:48.968Z,7.73
2023-04-17T03:12:30.568Z,7.67
2023-04-17T03:13:12.408Z,7.71
2023-04-17T03:13:54.069Z,7.69
2023-04-17T03:14:37.157Z,7.62
2023-04-17T03:15:18.947Z,7.57
2023-04-17T03:16:01.526Z,7.61
2023-04-17T03:16:43.421Z,7.44
2023-04-17T03:17:25.226Z,7.61
2023-04-17T03:18:07.363Z,7.61
2023-04-17T03:18:50.290Z,7.61
2023-04-17T03:19:31.960Z,7.41
2023-04-17T03:20:15.759Z,7.47
2023-04-17T03:20:58.087Z,7.51
2023-04-17T03:21:39.775Z,7.48
2023-04-17T03:22:21.619Z,7.58
2023-04-17T03:23:03.624Z,7.53
2023-04-17T03:23:46.616Z,7.57
2023-04-17T03:24:29.123Z,7.59
2023-04-17T03:25:11.108Z,7.61
2023-04-17T03:25:59.297Z,7.61
2023-04-17T03:26:41.557Z,7.62
2023-04-17T03:27:30.844Z,7.59
2023-04-17T03:28:12.401Z,7.48
2023-04-17T03:28:53.989Z,7.52
2023-04-17T03:29:36.182Z,7.45
2023-04-17T03:30:17.886Z,7.36
2023-04-17T03:31:02.897Z,7.56
2023-04-17T03:31:49.185Z,7.54
2023-04-17T03:32:31.338Z,7.54
2023-04-17T03:33:13.073Z,7.49
2023-04-17T03:33:54.669Z,7.56
2023-04-17T03:34:37.170Z,7.26
2023-04-17T03:35:18.884Z,7.61
2023-04-17T03:36:00.525Z,7.58
2023-04-17T03:36:44.789Z,7.65
2023-04-17T03:37:26.425Z,7.56
2023-04-17T03:38:08.693Z,7.69
2023-04-17T03:38:50.357Z,7.71
2023-04-17T03:39:32.008Z,7.62
2023-04-17T03:40:16.257Z,7.76
2023-04-17T03:40:59.698Z,7.79
2023-04-17T03:41:41.768Z,7.81
2023-04-17T03:42:24.422Z,7.75
2023-04-17T03:43:06.570Z,7.70
2023-04-17T03:43:48.195Z,7.76
2023-04-17T03:44:29.843Z,7.86
2023-04-17T03:45:11.697Z,7.78
2023-04-17T03:45:53.659Z,7.91
2023-04-17T03:46:36.368Z,7.94
2023-04-17T03:47:18.175Z,7.84
2023-04-17T03:48:01.102Z,7.84
2023-04-17T03:48:43.327Z,7.90
2023-04-17T03:49:25.214Z,7.93
2023-04-17T03:50:07.503Z,7.87
2023-04-17T03:50:54.216Z,7.99
2023-04-17T03:51:36.277Z,8.01
2023-04-17T03:52:25.636Z,8.03
2023-04-17T03:53:11.288Z,7.92
2023-04-17T03:53:53.780Z,8.05
2023-04-17T03:54:36.762Z,7.66
2023-04-17T03:55:20.399Z,8.06
2023-04-17T03:56:03.780Z,8.06
2023-04-17T03:56:50.138Z,8.04
2023-04-17T03:57:32.861Z,7.92
2023-04-17T03:58:14.553Z,8.06
2023-04-17T03:58:56.186Z,7.98
2023-04-17T03:59:38.011Z,8.04
2023-04-17T04:00:21.739Z,8.04
2023-04-17T04:01:10.872Z,8.01
2023-04-17T04:01:57.454Z,8.03
2023-04-17T04:02:40.069Z,7.96
2023-04-17T04:03:23.079Z,8.01
2023-04-17T04:04:05.175Z,8.00
2023-04-17T04:04:48.245Z,7.22
2023-04-17T04:05:30.291Z,7.98
2023-04-17T04:06:12.750Z,7.84
2023-04-17T04:06:57.464Z,7.96
2023-04-17T04:07:41.628Z,7.96
2023-04-17T04:08:23.844Z,8.03
2023-04-17T04:09:07.341Z,8.03
2023-04-17T04:09:48.950Z,8.04
2023-04-17T04:10:32.511Z,8.01
2023-04-17T04:11:14.380Z,7.99
2023-04-17T04:11:57.313Z,8.02
2023-04-17T04:12:38.988Z,7.96
2023-04-17T04:13:20.887Z,7.90
2023-04-17T04:14:10.495Z,7.89
2023-04-17T04:14:53.016Z,7.99
2023-04-17T04:15:34.659Z,7.91
2023-04-17T04:16:19.710Z,7.66
2023-04-17T04:17:01.372Z,8.02
2023-04-17T04:17:43.047Z,7.68
2023-04-17T04:18:25.197Z,7.85
2023-04-17T04:19:07.462Z,8.03
2023-04-17T04:19:49.071Z,8.02
2023-04-17T04:20:31.360Z,8.05
2023-04-17T04:21:25.521Z,7.83
2023-04-17T04:22:08.746Z,8.03
2023-04-17T04:22:59.231Z,8.07
2023-04-17T04:23:42.832Z,8.04
2023-04-17T04:24:26.324Z,8.11
2023-04-17T04:25:08.463Z,8.12
2023-04-17T04:26:02.085Z,8.12
2023-04-17T04:26:52.586Z,8.13
2023-04-17T04:27:34.150Z,8.14
2023-04-17T04:28:17.741Z,8.15
2023-04-17T04:29:00.366Z,8.16
2023-04-17T04:29:48.780Z,8.18
2023-04-17T04:30:35.843Z,8.19
2023-04-17T04:31:25.579Z,8.21
2023-04-17T04:32:11.574Z,8.15
2023-04-17T04:32:57.089Z,8.12
2023-04-17T04:33:38.764Z,8.30
2023-04-17T04:34:21.601Z,8.32
2023-04-17T04:35:04.392Z,8.41
2023-04-17T04:35:51.315Z,8.50
2023-04-17T04:36:36.358Z,8.47
2023-04-17T04:37:35.948Z,8.60
2023-04-17T04:38:29.867Z,8.74
2023-04-17T04:39:17.742Z,8.88
2023-04-17T04:40:02.411Z,8.19
2023-04-17T04:40:52.739Z,8.90
2023-04-17T04:41:34.623Z,8.58
2023-04-17T04:42:22.377Z,8.93
2023-04-17T04:43:21.644Z,8.95
2023-04-17T04:44:05.639Z,8.95
2023-04-17T04:44:50.053Z,8.95
2023-04-17T04:45:33.492Z,9.01
2023-04-17T04:46:16.692Z,8.80
2023-04-17T04:47:01.104Z,9.09
2023-04-17T04:47:42.832Z,9.09
2023-04-17T04:48:24.639Z,9.02
2023-04-17T04:49:06.871Z,8.91
2023-04-17T04:49:48.895Z,9.12
2023-04-17T04:50:35.072Z,9.14
2023-04-17T04:51:18.852Z,9.15
2023-04-17T04:52:01.034Z,9.09
2023-04-17T04:52:47.357Z,9.14
2023-04-17T04:53:41.500Z,9.21
2023-04-17T04:54:23.279Z,9.26
2023-04-17T04:55:10.064Z,9.27
2023-04-17T04:55:59.274Z,9.27
2023-04-17T04:56:44.903Z,9.30
2023-04-17T04:57:28.213Z,8.89
2023-04-17T04:58:13.698Z,9.38
2023-04-17T04:58:56.732Z,9.27
2023-04-17T04:59:39.068Z,9.39
2023-04-17T05:00:47.205Z,9.36
2023-04-17T05:01:35.929Z,9.47
2023-04-17T05:02:17.845Z,9.35
2023-04-17T05:02:59.697Z,9.54
2023-04-17T05:03:45.134Z,9.48
2023-04-17T05:04:30.744Z,9.48
2023-04-17T05:05:15.232Z,9.38
2023-04-17T05:05:57.007Z,9.45
2023-04-17T05:06:42.460Z,9.47
2023-04-17T05:07:24.255Z,9.45
2023-04-17T05:08:06.123Z,9.42
2023-04-17T05:08:49.966Z,9.38
2023-04-17T05:09:32.376Z,9.33
2023-04-17T05:10:14.116Z,9.02
2023-04-17T05:11:01.342Z,9.30
2023-04-17T05:11:42.956Z,9.25
2023-04-17T05:12:24.659Z,9.37
2023-04-17T05:13:06.277Z,9.37
2023-04-17T05:13:47.900Z,9.39
2023-04-17T05:14:39.883Z,9.42
2023-04-17T05:15:23.370Z,9.31
2023-04-17T05:16:05.354Z,9.48
2023-04-17T05:16:47.133Z,9.37
2023-04-17T05:17:29.037Z,9.39
2023-04-17T05:18:10.807Z,9.33
2023-04-17T05:18:53.238Z,9.35
2023-04-17T05:19:46.629Z,9.34
2023-04-17T05:20:28.784Z,9.17
2023-04-17T05:21:13.833Z,9.23
2023-04-17T05:21:55.545Z,9.36
2023-04-17T05:22:38.724Z,9.36
2023-04-17T05:23:24.494Z,9.05
2023-04-17T05:24:06.754Z,9.36
2023-04-17T05:24:48.475Z,9.33
2023-04-17T05:25:31.499Z,9.36
2023-04-17T05:26:15.077Z,9.39
2023-04-17T05:26:57.132Z,9.39
2023-04-17T05:27:39.021Z,9.33
2023-04-17T05:28:21.013Z,9.34
2023-04-17T05:29:05.399Z,9.44
2023-04-17T05:29:48.764Z,9.46
2023-04-17T05:30:30.950Z,9.45
2023-04-17T05:31:23.830Z,9.41
2023-04-17T05:32:06.010Z,9.40
2023-04-17T05:33:06.579Z,9.57
2023-04-17T05:34:02.153Z,9.66
2023-04-17T05:34:43.940Z,9.63
2023-04-17T05:35:25.745Z,9.73
2023-04-17T05:36:08.405Z,9.72
2023-04-17T05:36:53.568Z,9.75
2023-04-17T05:37:35.209Z,9.75
2023-04-17T05:38:17.478Z,9.75
2023-04-17T05:38:59.091Z,9.59
2023-04-17T05:39:40.867Z,9.75
2023-04-17T05:40:23.337Z,9.72
2023-04-17T05:41:07.464Z,9.73
2023-04-17T05:41:49.142Z,9.67
2023-04-17T05:42:30.994Z,9.77
2023-04-17T05:43:12.833Z,9.80
2023-04-17T05:43:55.114Z,9.78
2023-04-17T05:44:36.835Z,9.32
2023-04-17T05:45:18.531Z,9.68
2023-04-17T05:46:00.249Z,9.58
2023-04-17T05:46:41.881Z,9.58
2023-04-17T05:47:23.512Z,9.41
2023-04-17T05:48:05.483Z,9.42
2023-04-17T05:48:47.134Z,9.36
2023-04-17T05:49:28.975Z,9.38
2023-04-17T05:50:11.943Z,9.34
2023-04-17T05:50:53.682Z,9.31
2023-04-17T05:51:35.281Z,9.24
2023-04-17T05:52:17.509Z,9.25
2023-04-17T05:52:59.373Z,9.23
2023-04-17T05:53:44.854Z,9.18
2023-04-17T05:54:27.949Z,9.22
2023-04-17T05:55:10.148Z,9.26
2023-04-17T05:55:52.816Z,9.12
2023-04-17T05:56:34.553Z,9.05
2023-04-17T05:57:17.143Z,9.43
2023-04-17T05:57:59.001Z,9.50
2023-04-17T05:58:41.786Z,9.57
2023-04-17T05:59:23.583Z,9.61
2023-04-17T06:00:12.930Z,9.70
2023-04-17T06:00:58.030Z,9.77
2023-04-17T06:01:41.464Z,9.82
2023-04-17T06:02:26.560Z,9.71
2023-04-17T06:03:09.783Z,9.90
2023-04-17T06:03:54.568Z,9.94
2023-04-17T06:04:41.578Z,9.90
2023-04-17T06:05:23.903Z,10.00
2023-04-17T06:06:05.897Z,10.02
2023-04-17T06:06:47.725Z,10.04
2023-04-17T06:07:30.210Z,9.78
2023-04-17T06:08:11.829Z,10.07
2023-04-17T06:08:54.462Z,10.18
2023-04-17T06:09:38.271Z,10.20
2023-04-17T06:10:20.198Z,10.08
2023-04-17T06:11:01.868Z,10.25
2023-04-17T06:11:43.729Z,10.26
2023-04-17T06:12:25.523Z,10.20
2023-04-17T06:13:08.621Z,9.97
2023-04-17T06:13:52.068Z,10.29
2023-04-17T06:14:34.001Z,10.31
2023-04-17T06:15:19.180Z,10.35
2023-04-17T06:16:00.892Z,10.32
2023-04-17T06:16:42.589Z,10.37
2023-04-17T06:17:24.330Z,10.40
2023-04-17T06:18:06.441Z,10.44
2023-04-17T06:18:48.943Z,10.42
2023-04-17T06:19:30.634Z,10.50
2023-04-17T06:20:12.443Z,10.50
2023-04-17T06:20:54.478Z,10.49
2023-04-17T06:21:36.124Z,10.52
2023-04-17T06:22:17.760Z,10.49
2023-04-17T06:23:00.729Z,10.53
2023-04-17T06:23:42.402Z,10.52
2023-04-17T06:24:24.006Z,10.47
2023-04-17T06:25:09.251Z,10.36
2023-04-17T06:25:51.209Z,10.40
2023-04-17T06:26:33.597Z,10.34
2023-04-17T06:27:15.417Z,10.32
2023-04-17T06:27:57.623Z,10.26
2023-04-17T06:28:39.293Z,10.24
2023-04-17T06:29:20.972Z,10.24
2023-04-17T06:30:04.785Z,10.27
2023-04-17T06:30:50.238Z,9.90
2023-04-17T06:31:33.003Z,10.20
2023-04-17T06:32:14.737Z,10.25
2023-04-17T06:32:56.380Z,10.23
2023-04-17T06:33:38.060Z,10.16
2023-04-17T06:34:19.797Z,10.24
2023-04-17T06:35:02.399Z,10.24
2023-04-17T06:35:54.469Z,10.10
2023-04-17T06:37:00.546Z,10.26
2023-04-17T06:37:42.330Z,10.27
2023-04-17T06:38:23.980Z,10.31
2023-04-17T06:39:06.222Z,10.34
2023-04-17T06:39:47.855Z,10.32
2023-04-17T06:40:29.548Z,10.36
2023-04-17T06:41:11.111Z,10.42
2023-04-17T06:41:56.102Z,10.40
2023-04-17T06:42:42.009Z,10.41
2023-04-17T06:43:27.658Z,10.46
2023-04-17T06:44:09.458Z,10.41
2023-04-17T06:45:02.089Z,10.43
2023-04-17T06:45:45.165Z,10.38
2023-04-17T06:46:26.870Z,10.36
2023-04-17T06:47:09.030Z,10.41
2023-04-17T06:47:52.798Z,10.40
2023-04-17T06:48:34.496Z,10.37
2023-04-17T06:49:16.121Z,10.37
2023-04-17T06:49:59.855Z,10.37
2023-04-17T06:50:42.228Z,10.33
2023-04-17T06:51:25.346Z,10.37
2023-04-17T06:52:06.975Z,10.31
2023-04-17T06:52:48.599Z,10.29
2023-04-17T06:53:30.219Z,10.49
2023-04-17T06:54:12.166Z,10.51
2023-04-17T06:54:54.470Z,10.53
2023-04-17T06:55:36.113Z,10.47
2023-04-17T06:56:18.261Z,10.41
2023-04-17T06:56:59.923Z,10.56
2023-04-17T06:57:41.584Z,10.57
2023-04-17T06:58:23.178Z,10.51
2023-04-17T06:59:04.836Z,10.57
2023-04-17T06:59:46.417Z,10.66
2023-04-17T07:00:28.227Z,10.69
2023-04-17T07:01:11.444Z,10.70
2023-04-17T07:01:53.184Z,10.63
2023-04-17T07:02:34.933Z,10.71
2023-04-17T07:03:16.782Z,10.75
2023-04-17T07:03:58.611Z,10.48
2023-04-17T07:04:40.543Z,10.90
2023-04-17T07:05:22.276Z,10.93
2023-04-17T07:06:04.054Z,10.99
2023-04-17T07:06:45.694Z,10.76
2023-04-17T07:07:28.006Z,11.19
2023-04-17T07:08:09.761Z,11.16
2023-04-17T07:08:52.560Z,11.32
2023-04-17T07:09:35.168Z,11.36
2023-04-17T07:10:19.352Z,11.24
2023-04-17T07:11:01.786Z,11.47
2023-04-17T07:11:43.419Z,11.39
2023-04-17T07:12:25.154Z,11.38
2023-04-17T07:13:06.997Z,11.47
2023-04-17T07:13:48.644Z,11.42
2023-04-17T07:14:30.645Z,11.44
2023-04-17T07:15:12.495Z,11.47
2023-04-17T07:15:55.483Z,11.48
2023-04-17T07:16:37.255Z,11.40
2023-04-17T07:17:19.449Z,11.34
2023-04-17T07:18:01.157Z,11.48
2023-04-17T07:18:42.858Z,11.48
2023-04-17T07:19:24.467Z,11.39
2023-04-17T07:20:07.697Z,11.50
2023-04-17T07:20:49.484Z,11.50
2023-04-17T07:21:32.574Z,11.24
2023-04-17T07:22:14.356Z,11.57
2023-04-17T07:22:56.645Z,11.34
2023-04-17T07:23:38.279Z,11.67
2023-04-17T07:24:19.934Z,11.65
2023-04-17T07:25:01.708Z,11.60
2023-04-17T07:25:43.452Z,11.58
2023-04-17T07:26:25.631Z,11.58
2023-04-17T07:27:09.344Z,11.51
2023-04-17T07:27:51.324Z,11.62
2023-04-17T07:28:34.133Z,11.70
2023-04-17T07:29:16.017Z,11.77
2023-04-17T07:29:57.799Z,11.86
2023-04-17T07:30:39.432Z,11.93
2023-04-17T07:31:22.038Z,12.01
2023-04-17T07:32:04.737Z,12.05
2023-04-17T07:32:46.643Z,12.14
2023-04-17T07:33:28.233Z,12.07
2023-04-17T07:34:09.941Z,12.08
2023-04-17T07:34:52.011Z,12.04
2023-04-17T07:35:33.895Z,12.05
2023-04-17T07:36:16.319Z,11.98
2023-04-17T07:36:58.339Z,12.05
2023-04-17T07:37:40.037Z,11.82
2023-04-17T07:38:21.815Z,12.15
2023-04-17T07:39:03.801Z,12.17
2023-04-17T07:39:48.779Z,12.23
2023-04-17T07:40:32.077Z,12.22
2023-04-17T07:41:13.851Z,12.21
2023-04-17T07:41:56.174Z,12.21
2023-04-17T07:42:37.957Z,12.23
2023-04-17T07:43:19.575Z,12.26
2023-04-17T07:44:03.497Z,12.31
2023-04-17T07:44:46.357Z,12.32
2023-04-17T07:45:28.588Z,12.39
2023-04-17T07:46:10.220Z,12.44
2023-04-17T07:46:51.951Z,12.47
2023-04-17T07:47:33.734Z,12.42
2023-04-17T07:48:18.614Z,12.41
2023-04-17T07:49:00.267Z,12.54
2023-04-17T07:49:41.941Z,12.57
2023-04-17T07:50:23.654Z,12.67
2023-04-17T07:51:05.930Z,12.69
2023-04-17T07:51:47.532Z,12.80
2023-04-17T07:52:29.460Z,12.81
2023-04-17T07:53:11.414Z,12.84
2023-04-17T07:53:53.191Z,13.00
2023-04-17T07:54:34.865Z,13.07
2023-04-17T07:55:16.838Z,12.97
2023-04-17T07:55:58.754Z,13.14
2023-04-17T07:56:40.435Z,12.90
2023-04-17T07:57:22.569Z,13.13
2023-04-17T07:58:04.287Z,13.20
2023-04-17T07:58:46.362Z,13.23
2023-04-17T07:59:28.654Z,13.18
2023-04-17T08:00:13.618Z,13.08
2023-04-17T08:00:55.648Z,12.86
2023-04-17T08:01:37.227Z,13.13
2023-04-17T08:02:20.685Z,13.08
2023-04-17T08:03:03.956Z,13.23
2023-04-17T08:03:49.307Z,13.17
2023-04-17T08:04:33.267Z,13.10
2023-04-17T08:05:15.172Z,13.07
2023-04-17T08:05:57.504Z,13.08
2023-04-17T08:06:39.173Z,13.15
2023-04-17T08:07:20.801Z,12.99
2023-04-17T08:08:02.481Z,13.10
2023-04-17T08:08:47.553Z,13.11
2023-04-17T08:09:29.163Z,13.13
2023-04-17T08:10:10.967Z,13.06
2023-04-17T08:10:52.593Z,12.96
2023-04-17T08:11:42.759Z,12.89
2023-04-17T08:12:33.002Z,13.06
2023-04-17T08:13:14.623Z,12.99
2023-04-17T08:13:56.206Z,12.43
2023-04-17T08:14:38.723Z,12.96
2023-04-17T08:15:20.553Z,13.10
2023-04-17T08:16:02.273Z,13.19
2023-04-17T08:16:43.942Z,12.77
2023-04-17T08:17:26.009Z,13.48
2023-04-17T08:18:11.614Z,13.44
2023-04-17T08:18:53.251Z,13.48
2023-04-17T08:19:35.079Z,13.55
2023-04-17T08:20:18.160Z,13.65
2023-04-17T08:21:00.101Z,13.75
2023-04-17T08:21:41.746Z,13.76
2023-04-17T08:22:24.455Z,13.73
2023-04-17T08:23:06.216Z,13.64
2023-04-17T08:23:47.915Z,13.65
2023-04-17T08:24:31.425Z,13.71
2023-04-17T08:25:13.742Z,13.69
2023-04-17T08:25:55.420Z,13.77
2023-04-17T08:26:37.001Z,13.75
2023-04-17T08:27:18.570Z,13.84
2023-04-17T08:28:00.358Z,13.73
2023-04-17T08:28:41.983Z,14.00
2023-04-17T08:29:23.891Z,14.03
2023-04-17T08:30:06.953Z,14.12
2023-04-17T08:30:48.626Z,14.16
2023-04-17T08:31:31.205Z,14.15
2023-04-17T08:32:15.262Z,14.17
2023-04-17T08:32:57.608Z,14.16
2023-04-17T08:33:39.555Z,14.26
2023-04-17T08:34:21.465Z,14.24
2023-04-17T08:35:04.134Z,14.49
2023-04-17T08:35:45.976Z,14.65
2023-04-17T08:36:28.405Z,14.61
2023-04-17T08:37:10.214Z,14.66
2023-04-17T08:37:52.001Z,14.64
2023-04-17T08:38:33.632Z,14.65
2023-04-17T08:39:16.522Z,14.68
2023-04-17T08:39:58.292Z,14.64
2023-04-17T08:40:42.751Z,14.43
2023-04-17T08:41:34.139Z,14.77
2023-04-17T08:42:18.834Z,14.80
2023-04-17T08:43:02.065Z,14.62
2023-04-17T08:43:48.541Z,14.46
2023-04-17T08:44:30.797Z,14.29
2023-04-17T08:45:13.693Z,14.25
2023-04-17T08:45:56.622Z,14.11
2023-04-17T08:46:38.950Z,14.19
2023-04-17T08:47:20.987Z,14.15
2023-04-17T08:48:02.675Z,14.13
2023-04-17T08:48:44.582Z,14.02
2023-04-17T08:49:30.259Z,14.14
2023-04-17T08:50:17.673Z,14.16
2023-04-17T08:50:59.458Z,14.20
2023-04-17T08:51:42.246Z,14.18
2023-04-17T08:52:23.860Z,14.14
2023-04-17T08:53:06.025Z,14.09
2023-04-17T08:53:47.660Z,13.98
2023-04-17T08:54:29.358Z,13.96
2023-04-17T08:55:13.983Z,13.96
2023-04-17T08:55:57.357Z,13.97
2023-04-17T08:56:39.021Z,14.00
2023-04-17T08:57:20.914Z,14.04
2023-04-17T08:58:04.484Z,13.75
2023-04-17T08:58:46.106Z,13.93
2023-04-17T08:59:27.710Z,13.92
2023-04-17T09:00:12.128Z,14.09
2023-04-17T09:00:53.805Z,14.02
2023-04-17T09:01:35.863Z,14.06
2023-04-17T09:02:18.870Z,13.99
2023-04-17T09:03:09.887Z,14.01
2023-04-17T09:03:52.314Z,14.06
2023-04-17T09:04:38.037Z,14.10
2023-04-17T09:05:21.759Z,14.17
2023-04-17T09:06:03.502Z,14.05
2023-04-17T09:06:54.244Z,13.96
2023-04-17T09:07:36.190Z,13.90
2023-04-17T09:08:26.010Z,13.84
2023-04-17T09:09:07.669Z,13.72
2023-04-17T09:09:54.475Z,13.66
2023-04-17T09:10:42.219Z,13.84
2023-04-17T09:11:24.106Z,13.73
2023-04-17T09:12:10.341Z,14.22
2023-04-17T09:13:01.276Z,14.10
2023-04-17T09:13:42.958Z,14.11
2023-04-17T09:14:31.375Z,14.10
2023-04-17T09:15:16.904Z,14.24
2023-04-17T09:16:06.119Z,14.59
2023-04-17T09:16:57.964Z,14.62
2023-04-17T09:17:39.606Z,14.59
2023-04-17T09:18:27.191Z,14.40
2023-04-17T09:19:09.117Z,14.59
2023-04-17T09:20:25.280Z,14.78
2023-04-17T09:21:20.768Z,14.59
2023-04-17T09:22:21.123Z,14.55
2023-04-17T09:23:04.352Z,14.62
2023-04-17T09:23:48.525Z,14.76
2023-04-17T09:24:37.568Z,14.88
2023-04-17T09:25:20.732Z,15.00
2023-04-17T09:26:10.782Z,15.17
2023-04-17T09:26:52.389Z,15.27
2023-04-17T09:27:34.001Z,15.33
2023-04-17T09:28:16.123Z,15.39